Latest Weather Observations for King Island Airport

IDT60801

Issued at 6:32 pm EDT Thursday 8 December 2016 (issued every 30 minutes, with the page automatically refreshed every 10 minutes)

About weather observations | Map of weather stations | Latest weather observations for TAS | Other Formats
Station Details ID: 098017 Name: KING ISLAND AIRPORT Lat: -39.88 Lon: 143.88 Height: 37.0 m
Data from the previous 72 hours. | See also: Recent months at King Island Airport
Date/Time
EDT
Temp
°C
App
Temp
°C
Dew
Point
°C
Rel
Hum
%
Delta-T
°C
Wind Press
QNH
hPa
Press
MSL
hPa
Rain since
9am
mm
Dir  Spd
km/h
Gust
km/h
Spd
kts
Gust
kts
08/06:30pm 13.5 3.7 8.8 73 2.4 WSW 50 65 27 35 998.5 998.5 0.0
08/06:00pm 13.8 3.8 9.5 75 2.2 WSW 52 72 28 39 997.5 997.5 0.0
08/05:30pm 12.8 4.0 9.6 81 1.6 WSW 46 70 25 38 996.7 996.7 0.0
08/05:00pm 14.3 5.3 10.3 77 2.1 WSW 48 69 26 37 996.0 996.0 0.0
08/04:33pm 14.4 6.3 10.6 78 2.0 W 44 65 24 35 995.4 995.3 0.0
08/04:30pm 14.6 6.5 10.6 77 2.1 W 44 61 24 33 995.4 995.3 0.0
08/04:03pm 15.4 7.0 11.0 75 2.3 W 46 65 25 35 994.8 994.7 0.0
08/04:00pm 15.6 6.9 11.2 75 2.4 W 48 63 26 34 994.8 994.7 0.0
08/03:30pm 14.8 6.1 11.4 80 1.8 W 48 74 26 40 994.3 994.2 0.0
08/03:00pm 13.8 3.8 10.6 81 1.7 W 54 74 29 40 993.7 993.6 0.0
08/02:30pm 15.1 5.9 12.1 82 1.6 WNW 52 72 28 39 993.0 992.9 0.0
08/02:28pm 15.2 5.7 12.5 84 1.5 WNW 54 72 29 39 993.0 992.9 0.0
08/02:09pm 14.5 3.9 10.7 78 2.0 WNW 57 80 31 43 992.7 992.6 0.0
08/02:00pm 15.8 4.5 10.8 72 2.7 WNW 61 85 33 46 992.5 992.4 0.0
08/01:30pm 16.2 4.4 11.8 75 2.4 NW 65 83 35 45 992.2 992.1 0.0
08/01:00pm 14.8 1.9 10.4 75 2.3 NW 69 98 37 53 992.3 992.2 0.0
08/12:30pm 15.1 2.0 9.7 70 2.8 NW 69 93 37 50 992.3 992.2 0.0
08/12:00pm 16.7 5.4 10.8 68 3.2 NW 61 82 33 44 992.3 992.2 0.0
08/11:30am 16.6 4.6 10.9 69 3.1 NW 65 83 35 45 992.4 992.3 0.0
08/11:00am 15.9 3.6 10.0 68 3.1 NW 65 91 35 49 992.7 992.6 0.0
08/10:30am 15.7 4.6 10.2 70 2.9 NW 59 80 32 43 992.8 992.7 0.0
08/10:00am 15.2 4.6 10.6 74 2.5 NW 57 76 31 41 993.1 993.0 0.0
08/09:30am 15.0 6.1 12.0 82 1.6 WNW 50 69 27 37 992.8 992.7 0.0
08/09:13am 15.1 5.9 13.3 89 1.0 NW 54 72 29 39 992.8 992.7 0.0
08/09:00am 15.6 8.2 14.3 92 0.7 NW 46 70 25 38 992.5 992.4 5.2
08/08:59am 15.8 8.9 14.5 92 0.7 NW 44 61 24 33 992.4 992.3 5.2
08/08:55am 16.1 9.6 15.0 93 0.6 NNW 43 54 23 29 992.3 992.2 5.2
08/08:43am 16.2 9.5 15.1 93 0.6 NNW 44 61 24 33 992.2 992.1 5.0
08/08:30am 16.4 8.6 15.1 92 0.8 NNW 50 74 27 40 992.2 992.1 5.0
08/08:20am 16.7 9.7 15.2 91 0.9 NNW 46 72 25 39 992.2 992.1 5.0
08/08:19am 16.9 10.3 15.4 91 0.9 NNW 44 72 24 39 992.1 992.0 5.0
08/08:17am 16.9 10.9 15.4 91 0.9 N 41 59 22 32 991.8 991.7 4.8
08/08:00am 17.2 10.8 15.4 89 1.1 N 43 59 23 32 991.5 991.4 4.8
08/07:47am 17.5 11.4 15.3 87 1.3 N 41 59 22 32 991.5 991.4 4.8
08/07:30am 17.5 11.8 15.1 86 1.4 N 39 56 21 30 991.4 991.3 4.6
08/07:29am 17.5 11.8 15.3 87 1.3 N 39 56 21 30 991.4 991.3 4.6
08/07:17am 16.9 12.1 14.7 87 1.3 N 33 52 18 28 991.6 991.5 4.6
08/07:15am 16.9 12.1 14.5 86 1.4 N 33 50 18 27 991.6 991.5 4.6
08/07:00am 16.7 11.7 14.0 84 1.5 NNE 33 48 18 26 991.7 991.6 3.4
08/06:30am 15.9 11.7 13.6 86 1.3 NNE 28 35 15 19 992.4 992.3 3.4
08/06:00am 15.7 10.8 13.7 88 1.1 NE 32 41 17 22 993.0 992.9 3.4
08/05:30am 15.7 12.6 13.4 86 1.3 NE 22 30 12 16 994.4 994.3 2.8
08/05:00am 16.5 11.8 13.2 81 1.9 NNE 30 43 16 23 994.9 994.8 1.6
08/04:30am 17.4 13.4 13.1 76 2.4 NNE 26 35 14 19 995.8 995.8 0.8
08/04:00am 16.2 11.6 12.2 77 2.2 NE 28 35 15 19 995.2 995.1 0.4
08/03:36am 15.8 10.9 12.5 81 1.8 NE 30 48 16 26 995.8 995.8 0.4
08/03:30am 15.3 10.0 12.4 83 1.6 ENE 32 48 17 26 995.9 995.9 0.4
08/03:00am 15.0 10.0 12.3 84 1.5 ENE 30 41 16 22 996.5 996.5 0.4
08/02:55am 14.9 9.6 12.4 85 1.4 ENE 32 41 17 22 996.4 996.4 0.4
08/02:30am 14.9 9.4 12.4 85 1.4 ENE 33 46 18 25 998.4 998.4 0.4
08/02:21am 14.8 9.4 12.3 85 1.4 ENE 32 50 17 27 998.1 998.1 0.4
08/02:00am 14.6 9.1 12.5 87 1.2 ENE 33 48 18 26 998.3 998.3 0.4
08/01:30am 14.3 8.3 12.2 87 1.1 ENE 35 50 19 27 999.8 999.8 0.4
08/01:00am 14.7 9.6 12.0 84 1.5 NE 30 43 16 23 1001.3 1001.3 0.0
08/12:49am 15.0 9.6 12.1 83 1.6 ENE 32 50 17 27 1001.7 1001.7 0.0
08/12:30am 14.7 9.3 12.2 85 1.4 ENE 32 43 17 23 1001.8 1001.8 0.0
08/12:00am 14.7 8.6 11.7 82 1.6 ENE 35 48 19 26 1002.3 1002.3 0.0
 
Date/Time
EDT
Temp
°C
App
Temp
°C
Dew
Point
°C
Rel
Hum
%
Delta-T
°C
Wind Press
QNH
hPa
Press
MSL
hPa
Rain since
9am
mm
Dir  Spd
km/h
Gust
km/h
Spd
kts
Gust
kts
07/11:30pm 14.8 9.2 11.6 81 1.7 ENE 32 43 17 23 1003.9 1003.9 0.0
07/11:00pm 14.5 8.7 10.7 78 2.0 ENE 32 43 17 23 1004.5 1004.5 0.0
07/10:30pm 14.0 8.3 9.8 76 2.2 ENE 30 39 16 21 1005.1 1005.1 0.0
07/10:00pm 13.6 8.2 9.6 77 2.1 E 28 35 15 19 1005.7 1005.7 0.0
07/09:30pm 13.5 8.8 9.4 76 2.1 E 24 32 13 17 1006.3 1006.3 0.0
07/09:00pm 13.8 9.2 9.5 75 2.2 ENE 24 32 13 17 1006.7 1006.7 0.0
07/08:30pm 14.4 10.1 9.4 72 2.6 ENE 22 30 12 16 1007.3 1007.3 0.0
07/08:00pm 15.6 11.1 8.4 62 3.7 ENE 22 30 12 16 1007.8 1007.8 0.0
07/07:30pm 17.0 13.0 8.4 57 4.4 E 19 26 10 14 1008.2 1008.2 0.0
07/07:00pm 17.8 16.7 9.9 60 4.2 ENE 6 9 3 5 1008.7 1008.7 0.0
07/06:30pm 17.8 16.4 9.7 59 4.3 WNW 7 11 4 6 1009.4 1009.4 0.0
07/06:00pm 17.2 14.7 8.4 56 4.5 WNW 11 15 6 8 1009.9 1009.9 0.0
07/05:30pm 17.9 15.3 7.9 52 5.1 WNW 11 15 6 8 1010.5 1010.4 0.0
07/05:00pm 18.4 15.6 8.4 52 5.2 WNW 13 19 7 10 1010.9 1010.8 0.0
07/04:30pm 18.2 15.6 9.3 56 4.7 WNW 13 19 7 10 1011.5 1011.4 0.0
07/04:00pm 17.4 14.4 10.8 65 3.5 NW 17 24 9 13 1011.9 1011.8 0.0
07/03:30pm 16.9 13.5 11.2 69 3.1 NNW 20 30 11 16 1012.5 1012.4 0.0
07/03:00pm 16.9 12.5 11.6 71 2.9 NW 26 32 14 17 1013.1 1013.0 0.0
07/02:30pm 16.9 13.3 12.0 73 2.7 NW 22 32 12 17 1013.2 1013.1 0.0
07/02:00pm 16.9 13.0 12.2 74 2.6 NW 24 32 13 17 1013.5 1013.4 0.0
07/01:50pm 16.9 12.6 12.0 73 2.7 NW 26 33 14 18 1013.5 1013.4 0.0
07/01:36pm 16.4 12.3 11.6 73 2.6 NNW 24 30 13 16 1013.6 1013.5 0.0
07/01:30pm 16.5 12.1 11.6 73 2.7 NNW 26 37 14 20 1013.7 1013.6 0.0
07/01:02pm 16.3 11.5 11.7 74 2.5 NW 28 33 15 18 1014.0 1013.9 0.0
07/01:00pm 16.7 12.4 12.0 74 2.6 NW 26 33 14 18 1014.0 1013.9 0.0
07/12:50pm 16.6 12.3 12.2 75 2.4 NNW 26 35 14 19 1014.1 1014.0 0.0
07/12:47pm 16.4 12.0 11.8 74 2.5 NW 26 32 14 17 1014.0 1013.9 0.0
07/12:30pm 16.5 12.6 12.1 75 2.4 NNW 24 30 13 16 1014.1 1014.0 0.0
07/12:00pm 16.6 12.5 12.6 77 2.2 NNW 26 33 14 18 1014.3 1014.2 0.0
07/11:57am 16.4 12.1 12.2 76 2.3 NNW 26 32 14 17 1014.3 1014.2 0.0
07/11:54am 16.2 11.8 11.8 75 2.4 NW 26 32 14 17 1014.3 1014.2 0.0
07/11:40am 17.7 13.5 13.4 76 2.4 NNW 28 33 15 18 1014.4 1014.3 0.0
07/11:30am 16.6 12.7 12.2 75 2.4 NNW 24 32 13 17 1014.5 1014.4 0.0
07/11:00am 16.6 12.4 11.1 70 3.0 NW 24 32 13 17 1014.3 1014.2 0.0
07/10:30am 17.4 13.5 12.1 71 2.9 WNW 24 30 13 16 1014.5 1014.4 0.0
07/10:00am 16.8 12.7 11.3 70 3.0 NW 24 32 13 17 1014.5 1014.4 0.0
07/09:30am 16.3 12.3 11.7 74 2.5 NW 24 32 13 17 1014.6 1014.5 0.0
07/09:00am 15.7 11.6 11.5 76 2.3 NW 24 30 13 16 1014.7 1014.6 0.0
07/08:30am 15.3 11.6 11.5 78 2.0 NW 22 30 12 16 1014.6 1014.5 0.0
07/08:00am 15.2 11.5 11.6 79 1.9 WNW 22 28 12 15 1014.6 1014.5 0.0
07/07:30am 14.8 11.5 11.6 81 1.7 NW 20 28 11 15 1014.3 1014.2 0.0
07/07:00am 14.0 10.8 11.3 84 1.4 NW 19 26 10 14 1014.1 1014.0 0.0
07/06:30am 13.5 10.7 11.2 86 1.2 WNW 17 20 9 11 1014.2 1014.1 0.0
07/06:00am 13.2 10.3 10.9 86 1.2 WNW 17 26 9 14 1014.0 1013.9 0.0
07/05:30am 12.9 9.8 10.4 85 1.3 WNW 17 20 9 11 1013.8 1013.7 0.0
07/05:00am 12.8 9.8 10.5 86 1.2 WNW 17 24 9 13 1013.5 1013.4 0.0
07/04:30am 13.0 10.0 10.5 85 1.3 WNW 17 22 9 12 1013.2 1013.1 0.0
07/04:00am 13.4 10.4 10.8 84 1.4 WNW 17 24 9 13 1013.0 1012.9 0.0
07/03:30am 13.4 10.4 10.8 84 1.4 WNW 17 22 9 12 1013.2 1013.1 0.0
07/03:00am 13.5 9.9 10.7 83 1.5 WNW 20 26 11 14 1013.5 1013.4 0.0
07/02:30am 13.4 10.0 10.6 83 1.5 WNW 19 28 10 15 1013.8 1013.7 0.0
07/02:00am 13.4 10.0 10.4 82 1.6 WNW 19 26 10 14 1014.2 1014.1 0.0
07/01:30am 13.3 9.8 10.1 81 1.7 WNW 19 26 10 14 1014.4 1014.3 0.0
07/01:00am 13.5 10.0 10.1 80 1.8 WNW 19 28 10 15 1014.5 1014.4 0.0
07/12:30am 13.5 9.9 9.9 79 1.9 WNW 19 26 10 14 1014.7 1014.6 0.0
07/12:00am 13.6 10.0 9.8 78 2.0 WNW 19 28 10 15 1014.9 1014.8 0.0
 
Date/Time
EDT
Temp
°C
App
Temp
°C
Dew
Point
°C
Rel
Hum
%
Delta-T
°C
Wind Press
QNH
hPa
Press
MSL
hPa
Rain since
9am
mm
Dir  Spd
km/h
Gust
km/h
Spd
kts
Gust
kts
06/11:30pm 13.7 10.1 9.9 78 2.0 WNW 19 28 10 15 1015.0 1014.9 0.0
06/11:00pm 13.4 9.7 9.5 77 2.0 WNW 19 26 10 14 1015.2 1015.1 0.0
06/10:30pm 13.6 9.9 9.5 76 2.1 WNW 19 26 10 14 1015.3 1015.2 0.0
06/10:00pm 13.5 9.7 9.2 75 2.2 WNW 19 30 10 16 1015.4 1015.3 0.0
06/09:30pm 13.7 9.7 9.2 74 2.3 WNW 20 28 11 15 1015.2 1015.1 0.0
06/09:00pm 13.6 9.8 9.1 74 2.3 WNW 19 26 10 14 1014.9 1014.8 0.0
06/08:30pm 13.5 9.6 8.8 73 2.4 WNW 19 26 10 14 1014.8 1014.7 0.0
06/08:00pm 14.4 10.0 9.0 70 2.7 WNW 22 30 12 16 1014.5 1014.4 0.0
06/07:30pm 15.1 9.9 9.0 67 3.1 WNW 26 33 14 18 1014.6 1014.5 0.0
06/07:00pm 15.4 10.1 8.6 64 3.5 WNW 26 33 14 18 1014.2 1014.1 0.0
06/06:30pm 15.7 11.2 8.7 63 3.6 W 22 32 12 17 1013.9 1013.8 0.0
06/06:00pm 15.7 10.9 8.9 64 3.5 W 24 32 13 17 1014.0 1013.9 0.0
06/05:30pm 15.5 11.0 8.7 64 3.5 W 22 32 12 17 1013.9 1013.8 0.0
06/05:00pm 16.1 11.1 9.5 65 3.4 W 26 33 14 18 1014.0 1013.9 0.0
06/04:30pm 15.3 9.7 8.8 65 3.3 W 28 35 15 19 1013.9 1013.8 0.0
06/04:00pm 16.3 10.2 8.3 59 4.1 W 30 39 16 21 1014.0 1013.9 0.0
06/03:30pm 16.5 10.7 8.0 57 4.3 W 28 35 15 19 1013.9 1013.8 0.0
06/03:00pm 17.0 11.4 8.7 58 4.3 W 28 37 15 20 1014.0 1013.9 0.0
06/02:30pm 16.1 9.9 7.8 58 4.2 W 30 39 16 21 1014.0 1013.9 0.0
06/02:00pm 16.5 10.6 7.7 56 4.4 W 28 37 15 20 1014.0 1013.9 0.0
06/01:30pm 16.5 11.0 7.4 55 4.5 W 26 33 14 18 1013.9 1013.8 0.0
06/01:00pm 16.5 11.4 7.7 56 4.4 W 24 32 13 17 1014.3 1014.2 0.0
06/12:30pm 17.3 12.3 9.7 61 4.0 W 26 35 14 19 1014.4 1014.3 0.0
06/12:00pm 16.1 10.6 7.6 57 4.3 W 26 33 14 18 1014.3 1014.2 0.0
06/11:30am 16.5 11.9 8.0 57 4.3 W 22 32 12 17 1014.2 1014.1 0.0
06/11:00am 15.7 12.2 8.7 63 3.6 WSW 17 24 9 13 1013.9 1013.8 0.0
06/10:30am 14.7 10.8 7.3 61 3.6 W 17 20 9 11 1014.0 1013.9 0.0
06/10:00am 15.0 11.1 7.3 60 3.8 WNW 17 22 9 12 1013.8 1013.7 0.0
06/09:30am 14.7 11.2 7.0 60 3.8 W 15 20 8 11 1014.0 1013.9 0.0
06/09:00am 14.4 10.5 7.0 61 3.6 W 17 22 9 12 1014.0 1013.9 0.0
06/08:30am 14.1 10.5 6.7 61 3.6 WSW 15 19 8 10 1013.6 1013.5 0.0
06/08:00am 13.8 10.5 6.4 61 3.6 WSW 13 17 7 9 1013.7 1013.6 0.0
06/07:30am 13.3 10.0 6.6 64 3.2 WSW 13 19 7 10 1013.3 1013.2 0.0
06/07:00am 12.8 10.4 7.0 68 2.8 SW 9 13 5 7 1013.1 1013.0 0.0
06/06:30am 12.6 9.7 6.6 67 2.9 SW 11 13 6 7 1013.1 1013.0 0.0
06/06:00am 12.5 9.1 5.7 63 3.2 SW 13 19 7 10 1013.2 1013.1 0.0
06/05:30am 12.6 8.4 5.5 62 3.3 WSW 17 28 9 15 1013.3 1013.2 0.0
06/05:00am 12.6 8.5 6.0 64 3.1 WSW 17 20 9 11 1013.0 1012.9 0.0
06/04:30am 12.5 8.7 5.9 64 3.1 WSW 15 26 8 14 1012.7 1012.6 0.0
06/04:00am 12.0 8.6 6.1 67 2.8 WSW 13 20 7 11 1012.6 1012.5 0.0
06/03:30am 11.5 10.6 7.8 78 1.8 SSW 2 6 1 3 1012.1 1012.0 0.0
06/03:00am 11.2 10.7 7.7 79 1.7 CALM 0 0 0 0 1012.2 1012.1 0.0
06/02:30am 11.2 10.7 7.9 80 1.6 CALM 0 0 0 0 1012.7 1012.6 0.0
06/02:00am 11.2 10.6 7.3 77 1.9 CALM 0 0 0 0 1013.4 1013.3 0.0
06/01:30am 11.4 10.8 7.3 76 2.0 CALM 0 0 0 0 1013.9 1013.8 0.0
06/01:00am 11.3 10.6 7.0 75 2.1 CALM 0 0 0 0 1013.6 1013.5 0.0
06/12:30am 11.2 9.1 6.7 74 2.1 E 7 9 4 5 1013.6 1013.5 0.0
06/12:00am 12.2 10.6 6.5 68 2.7 WSW 4 7 2 4 1013.9 1013.8 0.0
 
Date/Time
EDT
Temp
°C
App
Temp
°C
Dew
Point
°C
Rel
Hum
%
Delta-T
°C
Wind Press
QNH
hPa
Press
MSL
hPa
Rain since
9am
mm
Dir  Spd
km/h
Gust
km/h
Spd
kts
Gust
kts
05/11:30pm 12.0 9.8 6.3 68 2.7 SSW 7 9 4 5 1013.8 1013.7 0.0
05/11:00pm 11.7 10.5 6.4 70 2.5 S 2 9 1 5 1014.2 1014.1 0.0
05/10:30pm 12.4 9.9 6.5 67 2.8 SW 9 13 5 7 1014.6 1014.5 0.0
05/10:00pm 12.1 9.5 5.9 66 2.9 SW 9 11 5 6 1015.1 1015.0 0.0
05/09:30pm 11.9 8.5 6.0 67 2.8 SW 13 15 7 8 1014.9 1014.8 0.0
05/09:00pm 12.6 9.3 6.6 67 2.9 SW 13 19 7 10 1014.8 1014.7 0.0
05/08:30pm 12.4 9.5 6.7 68 2.7 SW 11 13 6 7 1013.8 1013.7 0.0
05/08:00pm 13.6 9.6 6.7 63 3.3 SW 17 24 9 13 1013.9 1013.8 0.0
05/07:30pm 14.4 9.6 7.5 63 3.4 SW 22 30 12 16 1014.0 1013.9 0.0
05/07:00pm 14.8 10.3 6.9 59 3.9 SW 20 28 11 15 1013.8 1013.7 0.0

Other Formats:

Comma delimited format used in spreadsheet applications
http://www.bom.gov.au/fwo/IDT60801/IDT60801.94850.axf

JavaScript Object Notation format (JSON) in row-major order
http://www.bom.gov.au/fwo/IDT60801/IDT60801.94850.json